Portada
METAR-TAF:

METAR-TAF

Aeroports :

Williamsport, Pennsilvània, Estats Units d'Amèrica

latitud: 41-14-30N, longitud: 076-55-15W, altitud: 161 m

Observació

L'informe es va fer fa 2 hores i 42 minuts, a les 18:54 UTC
Vent 5 kt del Oest
Temperatura 14°C
Humitat 72%
Pressió 1015 hPa
Visibilitat: 16.1 km
Cel ennuvolat a una alçada de 3600 ft
Cel cobert a una alçada de 6000 ft

METAR: KIPT 261854Z 28005KT 10SM BKN036 OVC060 14/09 A2996 RMK AO2 SLP144 T01440089 $

Hora: 16:36 (21:36 UTC)

Pronòstic

L'informe es va fer fa 3 hores i 57 minuts, a les 17:39 UTC
Pronòstic vàlid del 26 a les 18 UTC al 27 a les 18 UTC
Vent 7 kt del Oest
Visibilitat: 10 km
Cel cobert a una alçada de 4000 ft
A partir de les 27 a les 0000 UTC
Vent 4 kt del Oest
Visibilitat: 10 km
Cel ennuvolat a una alçada de 3500 ft

TAF: KIPT 261739Z 2618/2718 27007KT P6SM OVC040 FM270000 26004KT P6SM BKN035

Observacions i pronòstics meteorològics de més de 4000 aeroports (METAR i TAF).

Les estacions disponibles són els punts grocs i vermells al mapa.

Posi el ratolí al punt desitjat per veure el nom de l'estació.

Feu clic per veure les observacions i els pronòstics meteorològics.

Per canviar el mapa: feu clic els botons verds amb una creu de color negre per apropar; al botó verd amb un guió per allunyar la imatge; o en les fletxes verdes per a mapes adjacents.


METAR-TAF: